Time;durP1;ratioP1;P1;durP2;ratioP2;P2;SDS_P1;SDS_P2;PMS_P1;PMS_P2;Temp;Humidity;BMP_temperature;BMP_pressure;BME280_temperature;BME280_humidity;BME280_pressure;Samples;Min_cycle;Max_cycle;Signal;HPM_P1;HPM_P2
2024/01/23 00:00:19;;;;;;;4.57;1.58;;;;;;;16.92;57.19;100882.03;21013873;28;20131;-60
2024/01/23 00:10:22;;;;;;;4.22;1.48;;;;;;;16.88;57.06;100888.66;21012653;28;20052;-60
2024/01/23 00:20:24;;;;;;;4.15;1.35;;;;;;;16.86;56.94;100909.44;21020119;28;20048;-59
2024/01/23 00:30:26;;;;;;;6.20;1.58;;;;;;;16.89;56.82;100938.75;20976152;28;20502;-60
2024/01/23 00:40:28;;;;;;;4.97;1.30;;;;;;;16.91;56.25;100958.31;20986192;28;20052;-60
2024/01/23 00:50:29;;;;;;;3.58;1.25;;;;;;;16.93;56.13;100967.09;20988016;28;20082;-60
2024/01/23 01:00:31;;;;;;;5.03;1.98;;;;;;;16.96;55.80;100991.03;20984952;28;20126;-60
2024/01/23 01:10:33;;;;;;;3.90;1.33;;;;;;;16.98;55.82;100990.09;20989947;28;20079;-61
2024/01/23 01:20:35;;;;;;;5.32;1.75;;;;;;;16.98;55.44;100998.16;20968287;28;20055;-60
2024/01/23 01:30:37;;;;;;;4.05;1.20;;;;;;;17.01;55.44;101003.28;20969221;28;20059;-60
2024/01/23 01:40:39;;;;;;;4.47;1.50;;;;;;;17.02;54.89;101013.94;20977201;28;20543;-61
2024/01/23 01:50:40;;;;;;;5.30;1.92;;;;;;;17.09;54.50;101047.41;20981990;28;20848;-61
2024/01/23 02:00:42;;;;;;;4.80;1.17;;;;;;;17.15;54.26;101039.78;20988702;28;20104;-60
2024/01/23 02:10:44;;;;;;;5.55;1.58;;;;;;;17.20;53.82;101070.69;20965128;28;20059;-60
2024/01/23 02:20:46;;;;;;;4.82;1.60;;;;;;;17.15;53.56;101078.28;20982443;28;20045;-60
2024/01/23 02:30:48;;;;;;;4.75;1.60;;;;;;;17.20;53.53;101097.59;20994236;28;20538;-60
2024/01/23 02:40:49;;;;;;;4.13;1.00;;;;;;;17.19;53.28;101103.97;21008426;28;20507;-60
2024/01/23 02:50:51;;;;;;;2.70;1.23;;;;;;;17.14;53.28;101102.66;20974050;28;20056;-60
2024/01/23 03:00:53;;;;;;;4.80;1.58;;;;;;;17.13;53.03;101134.06;21009685;28;20056;-60
2024/01/23 03:10:55;;;;;;;4.65;1.60;;;;;;;17.11;52.96;101141.41;21008206;28;20695;-61
2024/01/23 03:20:56;;;;;;;4.88;1.55;;;;;;;17.08;52.75;101165.88;21036143;28;20048;-60
2024/01/23 03:30:58;;;;;;;4.15;1.48;;;;;;;17.09;52.64;101191.78;20993876;28;20381;-60
2024/01/23 03:41:00;;;;;;;5.40;1.77;;;;;;;17.13;52.40;101214.78;20969770;28;20067;-60
2024/01/23 03:51:02;;;;;;;3.45;1.05;;;;;;;17.16;52.25;101217.22;20983173;28;20118;-61
2024/01/23 04:01:03;;;;;;;3.00;1.20;;;;;;;17.16;52.19;101237.91;20992849;28;20050;-61
2024/01/23 04:11:07;;;;;;;4.65;1.50;;;;;;;17.18;51.99;101271.75;20957892;28;20048;-61
2024/01/23 04:21:08;;;;;;;4.70;1.85;;;;;;;17.15;51.80;101272.00;21005714;28;20446;-61
2024/01/23 04:31:10;;;;;;;4.63;1.50;;;;;;;17.23;51.77;101299.16;21047228;28;20059;-62
2024/01/23 04:41:12;;;;;;;3.80;1.48;;;;;;;17.27;51.46;101313.22;21024880;28;20059;-60
2024/01/23 04:51:14;;;;;;;3.90;1.48;;;;;;;17.28;51.35;101330.22;21003927;28;20048;-60
2024/01/23 05:01:17;;;;;;;6.25;1.40;;;;;;;17.30;51.39;101365.94;20983638;28;20054;-60
2024/01/23 05:11:19;;;;;;;4.88;1.67;;;;;;;17.28;51.46;101379.50;21046396;28;20068;-60
2024/01/23 05:21:21;;;;;;;6.68;2.00;;;;;;;17.21;51.47;101397.97;21061965;28;20062;-60
2024/01/23 05:31:23;;;;;;;6.07;1.90;;;;;;;17.21;51.45;101427.56;20995686;28;20303;-60
2024/01/23 05:41:25;;;;;;;5.45;1.92;;;;;;;17.20;51.54;101471.59;21003162;28;20048;-60
2024/01/23 05:51:27;;;;;;;7.32;1.75;;;;;;;17.19;51.42;101488.72;21027577;28;20047;-60
2024/01/23 06:01:32;;;;;;;6.18;1.70;;;;;;;17.22;51.52;101504.63;21011804;28;20134;-60
2024/01/23 06:11:33;;;;;;;5.47;2.10;;;;;;;17.22;51.32;101528.84;21028860;27;20522;-60
2024/01/23 06:21:38;;;;;;;5.03;1.85;;;;;;;17.24;51.36;101547.56;21029360;28;20466;-60
2024/01/23 06:31:41;;;;;;;7.13;2.42;;;;;;;17.23;51.24;101568.25;21013549;28;20068;-60
2024/01/23 06:41:44;;;;;;;5.88;2.47;;;;;;;17.23;51.27;101570.94;20987231;28;20573;-60
2024/01/23 06:51:47;;;;;;;7.07;2.35;;;;;;;17.27;51.10;101589.53;20988095;28;20127;-60
2024/01/23 07:01:49;;;;;;;5.88;1.98;;;;;;;17.37;50.87;101614.78;20999477;28;20043;-60
2024/01/23 07:11:53;;;;;;;8.32;2.40;;;;;;;17.37;50.84;101617.47;20984018;28;20462;-60
2024/01/23 07:21:55;;;;;;;6.23;2.00;;;;;;;17.40;50.78;101636.94;20981978;28;20052;-60
2024/01/23 07:31:57;;;;;;;8.43;2.60;;;;;;;17.48;50.81;101663.28;20988948;28;20493;-72
2024/01/23 07:41:58;;;;;;;7.40;2.33;;;;;;;17.94;50.07;101698.47;20987103;28;20052;-73
2024/01/23 07:52:00;;;;;;;8.88;2.95;;;;;;;18.31;49.54;101721.75;21009188;28;20052;-75
2024/01/23 08:02:02;;;;;;;7.07;1.90;;;;;;;18.61;49.05;101744.63;21007830;28;20060;-70
2024/01/23 08:12:06;;;;;;;7.65;2.30;;;;;;;18.82;48.53;101785.22;21015386;28;20051;-70
2024/01/23 08:22:08;;;;;;;5.97;2.05;;;;;;;19.02;48.26;101780.13;21005833;28;20071;-70
2024/01/23 08:32:09;;;;;;;8.15;2.30;;;;;;;19.23;48.02;101799.16;20989263;28;20052;-70
2024/01/23 08:42:11;;;;;;;5.22;2.28;;;;;;;19.50;47.41;101817.66;20992573;28;20869;-69
2024/01/23 08:52:13;;;;;;;5.95;2.25;;;;;;;19.73;47.03;101828.41;20992191;28;20497;-70
2024/01/23 09:02:15;;;;;;;6.53;2.00;;;;;;;19.91;46.57;101836.03;21001571;27;20044;-69
2024/01/23 09:12:17;;;;;;;6.43;2.20;;;;;;;20.09;46.56;101817.41;20983295;28;20048;-70
2024/01/23 09:22:18;;;;;;;5.47;2.00;;;;;;;20.27;46.32;101825.81;20989450;28;20540;-69
2024/01/23 09:32:20;;;;;;;5.68;1.98;;;;;;;20.40;46.09;101842.75;20971311;28;20048;-69
2024/01/23 09:42:25;;;;;;;6.30;2.65;;;;;;;20.39;46.06;101841.03;20991379;28;20067;-68
2024/01/23 09:52:32;;;;;;;6.57;2.38;;;;;;;20.58;45.98;101888.13;20985543;28;20062;-70
2024/01/23 10:02:35;;;;;;;4.73;1.77;;;;;;;20.63;45.80;101891.31;20972034;28;20505;-69
2024/01/23 10:12:38;;;;;;;6.22;2.60;;;;;;;20.73;45.73;101899.50;20977539;28;20052;-69
2024/01/23 10:22:40;;;;;;;5.25;2.13;;;;;;;20.76;45.62;101901.06;20970749;28;20059;-70
2024/01/23 10:32:42;;;;;;;5.30;2.20;;;;;;;20.77;45.69;101913.59;20973118;28;20500;-70
2024/01/23 10:42:44;;;;;;;6.78;2.38;;;;;;;20.77;45.68;101903.66;20986871;28;20040;-70
2024/01/23 10:52:47;;;;;;;6.20;2.28;;;;;;;20.80;45.52;101897.16;20998335;28;20044;-70
2024/01/23 11:02:59;;;;;;;4.78;1.85;;;;;;;20.70;45.91;101862.72;20976780;28;20115;-69
2024/01/23 11:13:17;;;;;;;5.13;2.30;;;;;;;21.09;45.58;101897.34;20977931;28;20048;-71
2024/01/23 11:23:19;;;;;;;5.30;2.00;;;;;;;21.10;45.55;101895.50;20997269;28;20667;-70
2024/01/23 11:33:22;;;;;;;7.03;2.40;;;;;;;20.95;45.43;101879.59;20997382;28;20079;-70
2024/01/23 11:43:25;;;;;;;5.80;2.05;;;;;;;20.88;45.49;101875.72;20994341;28;20055;-70
2024/01/23 11:53:29;;;;;;;7.28;2.22;;;;;;;20.78;45.39;101872.06;20996983;28;20093;-70
2024/01/23 12:03:31;;;;;;;6.50;1.90;;;;;;;20.78;45.26;101836.88;20998233;28;20505;-69
2024/01/23 12:13:33;;;;;;;6.95;1.95;;;;;;;20.75;45.58;101845.22;20973359;28;20082;-69
2024/01/23 12:23:35;;;;;;;5.68;2.20;;;;;;;20.79;45.69;101816.97;20951666;28;20056;-68
2024/01/23 12:33:38;;;;;;;5.55;1.92;;;;;;;20.73;46.00;101804.78;20956939;28;20374;-71
2024/01/23 12:43:41;;;;;;;6.70;2.30;;;;;;;20.83;45.91;101821.97;20965732;28;20051;-70
2024/01/23 12:53:42;;;;;;;4.45;1.65;;;;;;;20.82;46.10;101817.56;20966586;28;20040;-71
2024/01/23 13:03:45;;;;;;;5.72;2.42;;;;;;;20.69;46.48;101798.78;20961244;28;20048;-72
2024/01/23 13:13:48;;;;;;;6.43;2.37;;;;;;;20.67;46.58;101789.94;20980233;28;20135;-73
2024/01/23 13:23:50;;;;;;;5.70;2.35;;;;;;;20.67;46.88;101772.88;20948555;28;20052;-69
2024/01/23 13:33:52;;;;;;;7.75;2.50;;;;;;;20.62;47.21;101770.53;20953694;28;20048;-69
2024/01/23 13:43:54;;;;;;;5.60;2.03;;;;;;;20.60;47.12;101767.13;20970663;28;20049;-69
2024/01/23 13:53:56;;;;;;;6.53;2.50;;;;;;;20.56;47.29;101747.63;20968582;28;20049;-68
2024/01/23 14:03:59;;;;;;;5.80;2.17;;;;;;;20.57;47.30;101734.94;20935251;28;20079;-68
2024/01/23 14:14:01;;;;;;;4.28;1.85;;;;;;;20.52;47.29;101726.34;20946453;28;20417;-68
2024/01/23 14:24:03;;;;;;;4.40;2.00;;;;;;;20.49;47.35;101721.22;20969774;28;20052;-70
2024/01/23 14:34:05;;;;;;;4.25;1.70;;;;;;;20.44;47.54;101710.78;20957940;28;20048;-69
2024/01/23 14:44:08;;;;;;;6.30;2.08;;;;;;;20.38;47.78;101695.97;20958793;28;20791;-68
2024/01/23 14:54:11;;;;;;;4.60;2.00;;;;;;;20.35;47.57;101671.91;20952392;28;20069;-68
2024/01/23 15:04:18;;;;;;;3.92;1.77;;;;;;;20.30;47.68;101641.69;20950153;28;20048;-68
2024/01/23 15:14:20;;;;;;;5.75;1.92;;;;;;;20.21;47.25;101626.25;20976228;28;20048;-71
2024/01/23 15:24:22;;;;;;;5.32;2.05;;;;;;;20.14;47.33;101599.78;20955121;28;20040;-75
2024/01/23 15:34:23;;;;;;;5.57;2.13;;;;;;;20.06;47.25;101564.44;20960352;28;20393;-72
2024/01/23 15:44:25;;;;;;;9.95;2.33;;;;;;;19.99;47.38;101547.06;20969875;28;20052;-76
2024/01/23 15:54:27;;;;;;;8.30;2.17;;;;;;;20.00;48.87;101522.59;20958175;28;20130;-68
2024/01/23 16:04:29;;;;;;;6.90;2.22;;;;;;;20.00;53.00;101497.44;20962979;28;20055;-71
2024/01/23 16:14:31;;;;;;;5.72;1.95;;;;;;;20.10;54.15;101474.00;20987883;28;20171;-74
2024/01/23 16:24:34;;;;;;;5.75;2.10;;;;;;;20.04;53.71;101430.44;20969606;28;20052;-70
2024/01/23 16:34:36;;;;;;;6.13;2.05;;;;;;;19.94;54.00;101425.00;20991704;28;20066;-72
2024/01/23 16:44:38;;;;;;;5.82;1.63;;;;;;;19.95;53.96;101388.91;20984593;28;20134;-71
2024/01/23 16:54:40;;;;;;;8.02;2.00;;;;;;;19.94;52.65;101370.97;20966398;27;20055;-71
2024/01/23 17:04:42;;;;;;;7.40;2.42;;;;;;;19.88;53.25;101357.97;20981320;28;20487;-70
2024/01/23 17:14:43;;;;;;;4.55;1.77;;;;;;;19.70;53.52;101312.72;21011616;28;20570;-70
2024/01/23 17:24:45;;;;;;;5.30;2.00;;;;;;;19.63;53.97;101292.66;20988774;28;20048;-70
2024/01/23 17:34:47;;;;;;;4.18;1.75;;;;;;;19.49;54.05;101240.75;20980142;28;20044;-71
2024/01/23 17:44:51;;;;;;;4.25;1.73;;;;;;;19.36;54.37;101229.31;20983522;28;20059;-70
2024/01/23 17:54:53;;;;;;;3.55;1.40;;;;;;;19.17;54.07;101174.31;20991906;28;20048;-69
2024/01/23 18:04:55;;;;;;;3.15;1.50;;;;;;;19.06;53.97;101161.78;20985945;28;20052;-70
2024/01/23 18:14:57;;;;;;;3.95;1.50;;;;;;;18.95;53.91;101151.06;20996696;27;20082;-69
2024/01/23 18:25:00;;;;;;;3.15;1.58;;;;;;;18.82;54.07;101121.63;20972205;28;20059;-69
2024/01/23 18:35:22;;;;;;;3.03;1.20;;;;;;;18.69;54.12;101074.19;20987309;28;20055;-69
2024/01/23 18:45:24;;;;;;;2.38;1.10;;;;;;;18.60;54.35;101071.47;20947582;28;20052;-69
2024/01/23 18:55:26;;;;;;;1.88;1.00;;;;;;;18.50;54.33;101034.53;20988301;28;20044;-69
2024/01/23 19:05:28;;;;;;;2.38;1.23;;;;;;;18.46;54.21;100994.50;20976767;28;20051;-69
2024/01/23 19:15:30;;;;;;;2.28;0.77;;;;;;;18.40;54.48;100977.06;20961958;28;20075;-69
2024/01/23 19:25:32;;;;;;;3.47;1.20;;;;;;;18.36;54.28;100959.47;20971585;28;20127;-69
2024/01/23 19:35:34;;;;;;;2.70;0.90;;;;;;;18.29;54.32;100932.19;20984722;28;20082;-69
2024/01/23 19:45:38;;;;;;;2.50;1.10;;;;;;;18.34;54.30;100913.75;21012962;28;20114;-69
2024/01/23 19:55:40;;;;;;;1.43;0.93;;;;;;;18.33;54.19;100887.81;20983454;28;20063;-69
2024/01/23 20:05:42;;;;;;;2.00;0.85;;;;;;;18.28;54.44;100865.81;21024964;28;20044;-69
2024/01/23 20:15:44;;;;;;;2.15;0.90;;;;;;;18.27;54.53;100864.13;21004115;27;20044;-70
2024/01/23 20:25:46;;;;;;;1.85;0.85;;;;;;;18.24;54.61;100834.75;21017791;28;20127;-69
2024/01/23 20:35:48;;;;;;;2.45;0.82;;;;;;;18.21;55.07;100805.41;21013494;28;20441;-69
2024/01/23 20:45:50;;;;;;;1.45;0.68;;;;;;;18.20;55.19;100780.28;21020078;28;20048;-70
2024/01/23 20:55:52;;;;;;;1.80;0.70;;;;;;;18.21;55.22;100763.13;21001581;28;20455;-69
2024/01/23 21:05:54;;;;;;;0.60;0.50;;;;;;;18.19;55.49;100761.56;20979175;28;20285;-69
2024/01/23 21:15:56;;;;;;;1.17;0.63;;;;;;;18.12;55.67;100707.41;20989806;28;20047;-69
2024/01/23 21:25:58;;;;;;;1.60;0.70;;;;;;;18.18;56.00;100695.22;20962347;28;20043;-69
2024/01/23 21:35:59;;;;;;;1.13;0.70;;;;;;;18.16;56.13;100678.34;21028017;28;20048;-69
2024/01/23 21:46:01;;;;;;;1.00;0.50;;;;;;;18.16;56.27;100648.69;20974357;28;20415;-69
2024/01/23 21:56:05;;;;;;;1.15;0.50;;;;;;;18.13;56.39;100681.31;20992934;28;20044;-69
2024/01/23 22:06:08;;;;;;;0.90;0.60;;;;;;;18.14;56.66;100648.00;21011591;28;20102;-69
2024/01/23 22:16:11;;;;;;;0.98;0.55;;;;;;;18.14;56.88;100604.88;20993635;28;20047;-69
2024/01/23 22:26:13;;;;;;;0.65;0.65;;;;;;;18.19;56.55;100603.44;20991668;28;20389;-69
2024/01/23 22:36:17;;;;;;;0.55;0.40;;;;;;;18.18;56.42;100607.13;21022649;28;20101;-69
2024/01/23 22:46:20;;;;;;;0.60;0.40;;;;;;;18.21;56.39;100552.94;21044433;28;20044;-70
2024/01/23 22:56:21;;;;;;;1.33;0.70;;;;;;;18.37;56.46;100554.19;20995604;28;20418;-69
2024/01/23 23:06:23;;;;;;;0.50;0.40;;;;;;;18.46;56.53;100533.56;21017749;28;20146;-69
2024/01/23 23:16:25;;;;;;;0.90;0.40;;;;;;;18.51;56.70;100498.91;20988534;28;20070;-69
2024/01/23 23:26:27;;;;;;;0.52;0.50;;;;;;;18.55;56.71;100525.44;20960302;28;20044;-69
2024/01/23 23:36:29;;;;;;;0.38;0.38;;;;;;;18.61;57.04;100505.13;20972602;28;20062;-69
2024/01/23 23:46:32;;;;;;;0.77;0.50;;;;;;;18.65;57.24;100498.44;20993858;28;20056;-70
2024/01/23 23:56:39;;;;;;;0.60;0.40;;;;;;;18.71;57.16;100480.78;20992740;28;20087;-69
